This is the latest recevied weather packets stored in our database for station/object PY3MO-11. If no packets are shown the sender has not sent any weather packets the latest 10 day(s).
| Time | Temp. | Humidity | Pressure | Rain* | Wind** | Luminosity | Snow |
|---|---|---|---|---|---|---|---|
| 1778101738 | 23.33° C | 62% | 1016.6 hPa | 0 mm | - | - | - |
| 1778101438 | 23.33° C | 62% | 1016.5 hPa | 0 mm | - | - | - |
| 1778101138 | 23.89° C | 62% | 1016.5 hPa | 0 mm | - | - | - |
| 1778100838 | 23.89° C | 62% | 1016.4 hPa | 0 mm | - | - | - |
| 1778100538 | 23.89° C | 62% | 1016.5 hPa | 0 mm | - | - | - |
| 1778100237 | 23.89° C | 61% | 1016.4 hPa | 0 mm | - | - | - |
| 1778099937 | 24.44° C | 61% | 1016.5 hPa | 0 mm | - | - | - |
| 1778099637 | 24.44° C | 60% | 1016.7 hPa | 0 mm | - | - | - |
| 1778099337 | 25° C | 60% | 1016.5 hPa | 0 mm | - | - | - |
| 1778099037 | 25° C | 59% | 1016.8 hPa | 0 mm | - | - | - |
| 1778098737 | 25.56° C | 57% | 1016.5 hPa | 0 mm | - | - | - |
| 1778098438 | 25.56° C | 56% | 1016.6 hPa | 0 mm | - | - | - |
| 1778098138 | 26.11° C | 54% | 1016.8 hPa | 0 mm | - | - | - |
| 1778097838 | 26.67° C | 53% | 1016.9 hPa | 0 mm | - | - | - |
| 1778097538 | 27.22° C | 53% | 1016.7 hPa | 0 mm | - | - | - |
| 1778097237 | 27.78° C | 49% | 1016.9 hPa | 0 mm | - | - | - |
| 1778096937 | 27.22° C | 52% | 1016.8 hPa | 0 mm | - | - | - |
| 1778096637 | 27.22° C | 52% | 1016.8 hPa | 0 mm | - | - | - |
| 1778096337 | 27.22° C | 52% | 1016.7 hPa | 0 mm | - | - | - |
| 1778096037 | 27.78° C | 47% | 1016.7 hPa | 0 mm | - | - | - |
| 1778095738 | 27.78° C | 46% | 1017 hPa | 0 mm | - | - | - |
| 1778095438 | 27.78° C | 46% | 1016.9 hPa | 0 mm | - | - | - |
| 1778095138 | 27.78° C | 47% | 1016.7 hPa | 0 mm | - | - | - |
| 1778094838 | 28.33° C | 47% | 1016.8 hPa | 0 mm | - | - | - |
| 1778094538 | 28.33° C | 48% | 1016.7 hPa | 0 mm | - | - | - |
* Rain latest hour (hover to see other rain measurements)
** Current wind speed in m/s (hover to see current wind gust speed)